PWSweather.com
Personal Weather Stations
Station Observations
MUNLOCHY
Munlochy Mill, MunlochyGB IV8 8NL

Munlochy MillMunlochyGB IV8 8NL

Lat: 57.548611, Lon: -4.2625966

Elevation: 62.336

Station Type: Oregon Scientific WMR200

http://www.millbankhouse.co.uk

Latest ConditionsUpdated 12:00:00 PM GMT Sunday, Oct 22, 2017
Currently Today's Max Today's Min Today's Average
Temperature 57.3°F14.1°C 57.3°F14.1°C 48.9°F9.4°C 51.0°F10.6°C
Dew Point 53.1°F11.7°C 54.5°F12.5°C 48.7°F9.3°C 50.5°F10.3°C
Winds 2.3 mph W3.7 kmh W 3.5 mph W5.6 kmh W - 1.1 mph 1.8 kmh
Wind Gusts 4.6 mph7.4 kmh 8.1 mph13.0 kmh - -
Humidity 86% 99% 86% 98%
Pressure 29.67 in1004.7 mb 29.67 in1004.7 mb 29.36 in994.2 mb -
Precipitation - 0.01 in0.3 mm - -
Hour Temp Dew Point Humidity Winds Wind Gusts Pressure Precip Precip Rate Daily Precip Total
12:00 PM 57.3°F14.1°C 53.1°F11.7°C 86% 2.3 mph W3.7 kmh W 4.6 mph7.4 kmh 29.67 in1004.7 mb - 0.00 in0.0 mm 0.01 in0.3 mm
11:55 AM 57.2°F14.0°C 53.6°F12.0°C 88% 3.5 mph W5.6 kmh W 5.8 mph9.3 kmh 29.66 in1004.4 mb - 0.00 in0.0 mm 0.01 in0.3 mm
11:50 AM 56.9°F13.8°C 53.7°F12.1°C 89% 3.5 mph W5.6 kmh W 3.5 mph5.6 kmh 29.66 in1004.4 mb - 0.00 in0.0 mm 0.01 in0.3 mm
11:45 AM 56.8°F13.8°C 53.3°F11.8°C 88% 2.3 mph W3.7 kmh W 4.6 mph7.4 kmh 29.66 in1004.4 mb - 0.00 in0.0 mm 0.01 in0.3 mm
11:40 AM 56.9°F13.8°C 53.1°F11.7°C 87% 2.3 mph WNW3.7 kmh WNW 8.1 mph13.0 kmh 29.66 in1004.4 mb - 0.00 in0.0 mm 0.01 in0.3 mm
11:35 AM 57.0°F13.9°C 53.8°F12.1°C 89% 2.3 mph WSW3.7 kmh WSW 5.8 mph9.3 kmh 29.66 in1004.4 mb - 0.00 in0.0 mm 0.01 in0.3 mm
11:30 AM 57.1°F13.9°C 54.2°F12.3°C 90% 2.3 mph WSW3.7 kmh WSW 4.6 mph7.4 kmh 29.66 in1004.4 mb - 0.00 in0.0 mm 0.01 in0.3 mm
11:25 AM 56.8°F13.8°C 54.5°F12.5°C 92% 2.3 mph WSW3.7 kmh WSW 4.6 mph7.4 kmh 29.65 in1004.1 mb - 0.00 in0.0 mm 0.01 in0.3 mm
11:20 AM 56.5°F13.6°C 54.5°F12.5°C 93% 2.3 mph SW3.7 kmh SW 3.5 mph5.6 kmh 29.65 in1004.1 mb - 0.00 in0.0 mm 0.01 in0.3 mm
11:15 AM 56.2°F13.4°C 54.2°F12.3°C 93% 2.3 mph SW3.7 kmh SW 4.6 mph7.4 kmh 29.65 in1004.1 mb - 0.00 in0.0 mm 0.01 in0.3 mm
11:10 AM 55.9°F13.3°C 54.2°F12.3°C 94% 2.3 mph WSW3.7 kmh WSW 2.3 mph3.7 kmh 29.65 in1004.1 mb - 0.00 in0.0 mm 0.01 in0.3 mm
11:00 AM 55.7°F13.2°C 54.2°F12.3°C 95% 2.3 mph SW3.7 kmh SW 3.5 mph5.6 kmh 29.64 in1003.7 mb - 0.00 in0.0 mm 0.01 in0.3 mm
10:55 AM 55.5°F13.1°C 54.1°F12.3°C 95% 2.3 mph SW3.7 kmh SW 3.5 mph5.6 kmh 29.64 in1003.7 mb - 0.00 in0.0 mm 0.01 in0.3 mm
10:50 AM 55.4°F13.0°C 54.0°F12.2°C 95% 2.3 mph WSW3.7 kmh WSW 2.3 mph3.7 kmh 29.64 in1003.7 mb - 0.00 in0.0 mm 0.01 in0.3 mm
10:45 AM 55.4°F13.0°C 54.0°F12.2°C 95% 2.3 mph WSW3.7 kmh WSW 3.5 mph5.6 kmh 29.64 in1003.7 mb - 0.00 in0.0 mm 0.01 in0.3 mm
10:40 AM 55.2°F12.9°C 53.8°F12.1°C 95% 2.3 mph WSW3.7 kmh WSW 3.5 mph5.6 kmh 29.63 in1003.4 mb - 0.00 in0.0 mm 0.01 in0.3 mm
10:35 AM 55.2°F12.9°C 54.1°F12.3°C 96% 2.3 mph WSW3.7 kmh WSW 4.6 mph7.4 kmh 29.63 in1003.4 mb - 0.00 in0.0 mm 0.01 in0.3 mm
10:30 AM 55.2°F12.9°C 54.1°F12.3°C 96% 2.3 mph WSW3.7 kmh WSW 4.6 mph7.4 kmh 29.63 in1003.4 mb - 0.00 in0.0 mm 0.01 in0.3 mm
10:25 AM 54.9°F12.7°C 54.1°F12.3°C 97% 1.2 mph WSW1.9 kmh WSW 3.5 mph5.6 kmh 29.63 in1003.4 mb - 0.00 in0.0 mm 0.01 in0.3 mm
10:20 AM 54.6°F12.6°C 54.1°F12.3°C 98% 1.2 mph WSW1.9 kmh WSW 2.3 mph3.7 kmh 29.62 in1003.0 mb - 0.00 in0.0 mm 0.01 in0.3 mm
10:15 AM 54.2°F12.3°C 53.4°F11.9°C 97% 2.3 mph SW3.7 kmh SW 2.3 mph3.7 kmh 29.62 in1003.0 mb - 0.00 in0.0 mm 0.01 in0.3 mm
10:10 AM 54.1°F12.3°C 53.5°F11.9°C 98% 2.3 mph SW3.7 kmh SW 2.3 mph3.7 kmh 29.62 in1003.0 mb - 0.00 in0.0 mm 0.01 in0.3 mm
10:00 AM 53.5°F11.9°C 52.9°F11.6°C 98% 2.3 mph SW3.7 kmh SW 3.5 mph5.6 kmh 29.62 in1003.0 mb - 0.00 in0.0 mm 0.01 in0.3 mm
09:55 AM 53.4°F11.9°C 53.1°F11.7°C 99% Calm Calm 4.6 mph7.4 kmh 29.61 in1002.7 mb - 0.00 in0.0 mm 0.01 in0.3 mm
09:50 AM 53.2°F11.8°C 53.0°F11.7°C 99% Calm Calm 3.5 mph5.6 kmh 29.61 in1002.7 mb - 0.00 in0.0 mm 0.01 in0.3 mm
09:45 AM 53.1°F11.7°C 52.8°F11.6°C 99% 1.2 mph WSW1.9 kmh WSW 2.3 mph3.7 kmh 29.61 in1002.7 mb - 0.00 in0.0 mm 0.01 in0.3 mm
09:40 AM 52.9°F11.6°C 52.6°F11.4°C 99% 1.2 mph SW1.9 kmh SW 2.3 mph3.7 kmh 29.61 in1002.7 mb - 0.00 in0.0 mm 0.01 in0.3 mm
09:35 AM 52.7°F11.5°C 52.4°F11.3°C 99% Calm Calm 2.3 mph3.7 kmh 29.61 in1002.7 mb - 0.00 in0.0 mm 0.01 in0.3 mm
09:30 AM 52.5°F11.4°C 52.2°F11.2°C 99% Calm Calm -- 29.61 in1002.7 mb - 0.00 in0.0 mm 0.01 in0.3 mm
09:25 AM 52.5°F11.4°C 52.2°F11.2°C 99% Calm Calm 1.2 mph1.9 kmh 29.60 in1002.4 mb - 0.00 in0.0 mm 0.01 in0.3 mm
09:20 AM 52.3°F11.3°C 52.1°F11.2°C 99% Calm Calm 2.3 mph3.7 kmh 29.60 in1002.4 mb - 0.00 in0.0 mm 0.01 in0.3 mm
09:15 AM 52.3°F11.3°C 52.0°F11.1°C 99% 1.2 mph SW1.9 kmh SW 2.3 mph3.7 kmh 29.60 in1002.4 mb - 0.00 in0.0 mm 0.01 in0.3 mm
09:10 AM 52.2°F11.2°C 51.9°F11.1°C 99% 1.2 mph SW1.9 kmh SW 2.3 mph3.7 kmh 29.60 in1002.4 mb - 0.00 in0.0 mm 0.01 in0.3 mm
09:00 AM 52.0°F11.1°C 51.7°F10.9°C 99% 1.2 mph SW1.9 kmh SW 2.3 mph3.7 kmh 29.60 in1002.4 mb - 0.00 in0.0 mm 0.01 in0.3 mm
08:55 AM 51.8°F11.0°C 51.5°F10.8°C 99% 1.2 mph WSW1.9 kmh WSW 3.5 mph5.6 kmh 29.59 in1002.0 mb - 0.00 in0.0 mm 0.01 in0.3 mm
08:50 AM 51.6°F10.9°C 51.3°F10.7°C 99% 1.2 mph WSW1.9 kmh WSW 2.3 mph3.7 kmh 29.59 in1002.0 mb - 0.01 in0.3 mm 0.01 in0.3 mm
08:45 AM 51.6°F10.9°C 51.3°F10.7°C 99% Calm Calm 2.3 mph3.7 kmh 29.59 in1002.0 mb - 0.00 in0.0 mm 0.01 in0.3 mm
08:40 AM 51.4°F10.8°C 51.2°F10.7°C 99% Calm Calm 2.3 mph3.7 kmh 29.59 in1002.0 mb - 0.00 in0.0 mm 0.01 in0.3 mm
08:35 AM 51.3°F10.7°C 51.0°F10.6°C 99% Calm Calm -- 29.59 in1002.0 mb - 0.00 in0.0 mm 0.01 in0.3 mm
08:30 AM 51.3°F10.7°C 51.0°F10.6°C 99% Calm Calm 1.2 mph1.9 kmh 29.59 in1002.0 mb - 0.00 in0.0 mm 0.01 in0.3 mm
08:25 AM 51.2°F10.7°C 50.9°F10.5°C 99% 1.2 mph WSW1.9 kmh WSW 2.3 mph3.7 kmh 29.58 in1001.7 mb - 0.00 in0.0 mm 0.01 in0.3 mm
08:20 AM 51.1°F10.6°C 50.8°F10.4°C 99% 1.2 mph WSW1.9 kmh WSW 2.3 mph3.7 kmh 29.57 in1001.4 mb - 0.00 in0.0 mm 0.01 in0.3 mm
08:15 AM 51.0°F10.6°C 50.7°F10.4°C 99% 1.2 mph WSW1.9 kmh WSW 2.3 mph3.7 kmh 29.57 in1001.4 mb - 0.00 in0.0 mm 0.01 in0.3 mm
08:10 AM 50.8°F10.4°C 50.5°F10.3°C 99% 2.3 mph WSW3.7 kmh WSW 2.3 mph3.7 kmh 29.57 in1001.4 mb - 0.00 in0.0 mm 0.01 in0.3 mm
08:00 AM 50.6°F10.3°C 50.3°F10.2°C 99% 2.3 mph WSW3.7 kmh WSW 2.3 mph3.7 kmh 29.57 in1001.4 mb - 0.00 in0.0 mm 0.01 in0.3 mm
07:55 AM 50.5°F10.3°C 50.3°F10.2°C 99% 2.3 mph WSW3.7 kmh WSW 4.6 mph7.4 kmh 29.56 in1001.0 mb - 0.00 in0.0 mm 0.01 in0.3 mm
07:50 AM 50.4°F10.2°C 50.1°F10.1°C 99% 2.3 mph W3.7 kmh W 3.5 mph5.6 kmh 29.56 in1001.0 mb - 0.00 in0.0 mm 0.01 in0.3 mm
07:45 AM 50.2°F10.1°C 49.9°F9.9°C 99% 1.2 mph WSW1.9 kmh WSW 2.3 mph3.7 kmh 29.56 in1001.0 mb - 0.00 in0.0 mm 0.01 in0.3 mm
07:40 AM 50.0°F10.0°C 49.7°F9.8°C 99% 1.2 mph WSW1.9 kmh WSW 2.3 mph3.7 kmh 29.55 in1000.7 mb - 0.00 in0.0 mm 0.01 in0.3 mm
07:35 AM 49.8°F9.9°C 49.6°F9.8°C 99% Calm Calm 2.3 mph3.7 kmh 29.55 in1000.7 mb - 0.00 in0.0 mm 0.01 in0.3 mm
07:30 AM 49.8°F9.9°C 49.6°F9.8°C 99% Calm Calm 3.5 mph5.6 kmh 29.55 in1000.7 mb - 0.00 in0.0 mm 0.01 in0.3 mm
07:25 AM 49.8°F9.9°C 49.6°F9.8°C 99% 1.2 mph WSW1.9 kmh WSW 2.3 mph3.7 kmh 29.55 in1000.7 mb - 0.00 in0.0 mm 0.01 in0.3 mm
07:20 AM 49.8°F9.9°C 49.6°F9.8°C 99% 1.2 mph WSW1.9 kmh WSW 2.3 mph3.7 kmh 29.55 in1000.7 mb - 0.00 in0.0 mm 0.01 in0.3 mm
07:15 AM 49.8°F9.9°C 49.5°F9.7°C 99% 2.3 mph WSW3.7 kmh WSW 2.3 mph3.7 kmh 29.55 in1000.7 mb - 0.00 in0.0 mm 0.01 in0.3 mm
07:10 AM 49.6°F9.8°C 49.4°F9.7°C 99% 2.3 mph WSW3.7 kmh WSW 2.3 mph3.7 kmh 29.54 in1000.3 mb - 0.00 in0.0 mm 0.01 in0.3 mm
07:00 AM 49.6°F9.8°C 49.4°F9.7°C 99% 2.3 mph WSW3.7 kmh WSW 2.3 mph3.7 kmh 29.53 in1000.0 mb - 0.00 in0.0 mm 0.01 in0.3 mm
06:55 AM 49.6°F9.8°C 49.4°F9.7°C 99% Calm Calm 2.3 mph3.7 kmh 29.53 in1000.0 mb - 0.00 in0.0 mm 0.01 in0.3 mm
06:50 AM 49.6°F9.8°C 49.4°F9.7°C 99% Calm Calm 2.3 mph3.7 kmh 29.53 in1000.0 mb - 0.00 in0.0 mm 0.01 in0.3 mm
06:45 AM 49.6°F9.8°C 49.4°F9.7°C 99% Calm Calm 2.3 mph3.7 kmh 29.53 in1000.0 mb - 0.00 in0.0 mm 0.01 in0.3 mm
06:40 AM 49.6°F9.8°C 49.4°F9.7°C 99% Calm Calm 2.3 mph3.7 kmh 29.52 in999.7 mb - 0.00 in0.0 mm 0.01 in0.3 mm
06:35 AM 49.6°F9.8°C 49.3°F9.6°C 99% Calm Calm 2.3 mph3.7 kmh 29.52 in999.7 mb - 0.00 in0.0 mm 0.01 in0.3 mm
06:30 AM 49.5°F9.7°C 49.2°F9.6°C 99% Calm Calm -- 29.52 in999.7 mb - 0.00 in0.0 mm 0.01 in0.3 mm
06:25 AM 49.5°F9.7°C 49.2°F9.6°C 99% Calm Calm -- 29.51 in999.3 mb - 0.00 in0.0 mm 0.01 in0.3 mm
06:20 AM 49.6°F9.8°C 49.4°F9.7°C 99% Calm Calm -- 29.51 in999.3 mb - 0.00 in0.0 mm 0.01 in0.3 mm
06:15 AM 49.6°F9.8°C 49.4°F9.7°C 99% 2.3 mph WSW3.7 kmh WSW 2.3 mph3.7 kmh 29.51 in999.3 mb - 0.00 in0.0 mm 0.01 in0.3 mm
06:10 AM 49.6°F9.8°C 49.4°F9.7°C 99% 2.3 mph W3.7 kmh W 2.3 mph3.7 kmh 29.51 in999.3 mb - 0.00 in0.0 mm 0.01 in0.3 mm
06:00 AM 49.5°F9.7°C 49.2°F9.6°C 99% 1.2 mph W1.9 kmh W 3.5 mph5.6 kmh 29.50 in999.0 mb - 0.00 in0.0 mm 0.01 in0.3 mm
05:55 AM 49.6°F9.8°C 49.4°F9.7°C 99% Calm Calm 2.3 mph3.7 kmh 29.50 in999.0 mb - 0.00 in0.0 mm 0.01 in0.3 mm
05:50 AM 49.6°F9.8°C 49.4°F9.7°C 99% Calm Calm -- 29.50 in999.0 mb - 0.00 in0.0 mm 0.01 in0.3 mm
05:45 AM 49.6°F9.8°C 49.4°F9.7°C 99% Calm Calm 2.3 mph3.7 kmh 29.50 in999.0 mb - 0.00 in0.0 mm 0.01 in0.3 mm
05:40 AM 49.6°F9.8°C 49.4°F9.7°C 99% Calm Calm -- 29.49 in998.6 mb - 0.00 in0.0 mm 0.01 in0.3 mm
05:35 AM 49.6°F9.8°C 49.4°F9.7°C 99% Calm Calm -- 29.49 in998.6 mb - 0.00 in0.0 mm 0.01 in0.3 mm
05:30 AM 49.6°F9.8°C 49.4°F9.7°C 99% Calm Calm -- 29.49 in998.6 mb - 0.00 in0.0 mm 0.01 in0.3 mm
05:25 AM 49.6°F9.8°C 49.4°F9.7°C 99% 1.2 mph WSW1.9 kmh WSW -- 29.48 in998.3 mb - 0.00 in0.0 mm 0.01 in0.3 mm
05:20 AM 49.6°F9.8°C 49.4°F9.7°C 99% 1.2 mph WSW1.9 kmh WSW -- 29.48 in998.3 mb - 0.00 in0.0 mm 0.01 in0.3 mm
05:15 AM 49.6°F9.8°C 49.4°F9.7°C 99% Calm Calm 2.3 mph3.7 kmh 29.48 in998.3 mb - 0.00 in0.0 mm 0.01 in0.3 mm
05:10 AM 49.6°F9.8°C 49.4°F9.7°C 99% Calm Calm 2.3 mph3.7 kmh 29.48 in998.3 mb - 0.00 in0.0 mm 0.01 in0.3 mm
05:00 AM 49.6°F9.8°C 49.4°F9.7°C 99% Calm Calm -- 29.47 in998.0 mb - 0.00 in0.0 mm 0.01 in0.3 mm
04:55 AM 49.6°F9.8°C 49.4°F9.7°C 99% Calm Calm -- 29.47 in998.0 mb - 0.00 in0.0 mm 0.01 in0.3 mm
04:50 AM 49.5°F9.7°C 49.2°F9.6°C 99% Calm Calm -- 29.46 in997.6 mb - 0.00 in0.0 mm 0.01 in0.3 mm
04:45 AM 49.5°F9.7°C 49.2°F9.6°C 99% Calm Calm 2.3 mph3.7 kmh 29.46 in997.6 mb - 0.00 in0.0 mm 0.01 in0.3 mm
04:40 AM 49.5°F9.7°C 49.2°F9.6°C 99% Calm Calm 2.3 mph3.7 kmh 29.46 in997.6 mb - 0.00 in0.0 mm 0.01 in0.3 mm
04:35 AM 49.4°F9.7°C 49.2°F9.6°C 99% Calm Calm 2.3 mph3.7 kmh 29.46 in997.6 mb - 0.00 in0.0 mm 0.01 in0.3 mm
04:30 AM 49.3°F9.6°C 49.0°F9.4°C 99% Calm Calm 2.3 mph3.7 kmh 29.46 in997.6 mb - 0.00 in0.0 mm 0.01 in0.3 mm
04:25 AM 49.1°F9.5°C 48.8°F9.3°C 99% 1.2 mph WSW1.9 kmh WSW 2.3 mph3.7 kmh 29.45 in997.3 mb - 0.00 in0.0 mm 0.01 in0.3 mm
04:20 AM 49.2°F9.6°C 49.0°F9.4°C 99% 1.2 mph WSW1.9 kmh WSW 2.3 mph3.7 kmh 29.45 in997.3 mb - 0.00 in0.0 mm 0.01 in0.3 mm
04:15 AM 49.3°F9.6°C 49.0°F9.4°C 99% Calm Calm 2.3 mph3.7 kmh 29.45 in997.3 mb - 0.00 in0.0 mm 0.01 in0.3 mm
04:10 AM 49.4°F9.7°C 49.1°F9.5°C 99% Calm Calm 1.2 mph1.9 kmh 29.45 in997.3 mb - 0.00 in0.0 mm 0.01 in0.3 mm
04:00 AM 49.5°F9.7°C 49.2°F9.6°C 99% Calm Calm 2.3 mph3.7 kmh 29.45 in997.3 mb - 0.00 in0.0 mm 0.01 in0.3 mm
03:55 AM 49.5°F9.7°C 49.2°F9.6°C 99% Calm Calm -- 29.45 in997.3 mb - 0.00 in0.0 mm 0.01 in0.3 mm
03:50 AM 49.5°F9.7°C 49.2°F9.6°C 99% Calm Calm 2.3 mph3.7 kmh 29.44 in997.0 mb - 0.00 in0.0 mm 0.01 in0.3 mm
03:45 AM 49.5°F9.7°C 49.2°F9.6°C 99% 1.2 mph WSW1.9 kmh WSW 2.3 mph3.7 kmh 29.44 in997.0 mb - 0.00 in0.0 mm 0.01 in0.3 mm
03:40 AM 49.5°F9.7°C 49.2°F9.6°C 99% 1.2 mph WSW1.9 kmh WSW -- 29.44 in997.0 mb - 0.00 in0.0 mm 0.01 in0.3 mm
03:35 AM 49.3°F9.6°C 49.1°F9.5°C 99% 2.3 mph WSW3.7 kmh WSW 2.3 mph3.7 kmh 29.44 in997.0 mb - 0.00 in0.0 mm 0.01 in0.3 mm
03:30 AM 49.3°F9.6°C 49.0°F9.4°C 99% 2.3 mph W3.7 kmh W 2.3 mph3.7 kmh 29.44 in997.0 mb - 0.00 in0.0 mm 0.01 in0.3 mm
03:25 AM 49.3°F9.6°C 49.0°F9.4°C 99% 2.3 mph W3.7 kmh W 2.3 mph3.7 kmh 29.44 in997.0 mb - 0.00 in0.0 mm 0.01 in0.3 mm
03:20 AM 49.3°F9.6°C 49.0°F9.4°C 99% 2.3 mph W3.7 kmh W 2.3 mph3.7 kmh 29.44 in997.0 mb - 0.00 in0.0 mm 0.01 in0.3 mm
03:15 AM 49.2°F9.6°C 48.9°F9.4°C 99% 2.3 mph W3.7 kmh W 2.3 mph3.7 kmh 29.44 in997.0 mb - 0.00 in0.0 mm 0.01 in0.3 mm
03:10 AM 48.9°F9.4°C 48.7°F9.3°C 99% 2.3 mph W3.7 kmh W 3.5 mph5.6 kmh 29.43 in996.6 mb - 0.00 in0.0 mm 0.01 in0.3 mm
03:00 AM 48.9°F9.4°C 48.7°F9.3°C 99% 2.3 mph W3.7 kmh W 3.5 mph5.6 kmh 29.43 in996.6 mb - 0.00 in0.0 mm 0.01 in0.3 mm
02:55 AM 49.0°F9.4°C 48.7°F9.3°C 99% 1.2 mph W1.9 kmh W 3.5 mph5.6 kmh 29.42 in996.3 mb - 0.00 in0.0 mm 0.01 in0.3 mm
02:50 AM 49.3°F9.6°C 49.0°F9.4°C 99% 1.2 mph W1.9 kmh W 2.3 mph3.7 kmh 29.42 in996.3 mb - 0.00 in0.0 mm 0.01 in0.3 mm
02:45 AM 49.3°F9.6°C 49.0°F9.4°C 99% 2.3 mph W3.7 kmh W 1.2 mph1.9 kmh 29.42 in996.3 mb - 0.00 in0.0 mm 0.01 in0.3 mm
02:40 AM 49.3°F9.6°C 49.0°F9.4°C 99% 2.3 mph W3.7 kmh W 2.3 mph3.7 kmh 29.42 in996.3 mb - 0.00 in0.0 mm 0.01 in0.3 mm
02:35 AM 49.2°F9.6°C 48.9°F9.4°C 99% Calm Calm 2.3 mph3.7 kmh 29.42 in996.3 mb - 0.00 in0.0 mm 0.01 in0.3 mm
02:30 AM 49.3°F9.6°C 49.0°F9.4°C 99% Calm Calm 2.3 mph3.7 kmh 29.42 in996.3 mb - 0.00 in0.0 mm 0.01 in0.3 mm
02:25 AM 49.1°F9.5°C 48.8°F9.3°C 99% 2.3 mph W3.7 kmh W -- 29.42 in996.3 mb - 0.00 in0.0 mm 0.01 in0.3 mm
02:20 AM 49.1°F9.5°C 48.8°F9.3°C 99% 2.3 mph W3.7 kmh W -- 29.41 in995.9 mb - 0.00 in0.0 mm 0.01 in0.3 mm
02:15 AM 49.0°F9.4°C 48.7°F9.3°C 99% 1.2 mph W1.9 kmh W 2.3 mph3.7 kmh 29.41 in995.9 mb - 0.00 in0.0 mm 0.01 in0.3 mm
02:10 AM 49.0°F9.4°C 48.7°F9.3°C 99% 1.2 mph W1.9 kmh W 2.3 mph3.7 kmh 29.41 in995.9 mb - 0.00 in0.0 mm 0.01 in0.3 mm
02:00 AM 49.3°F9.6°C 49.0°F9.4°C 99% Calm Calm 2.3 mph3.7 kmh 29.41 in995.9 mb - 0.00 in0.0 mm 0.01 in0.3 mm
01:55 AM 49.3°F9.6°C 49.0°F9.4°C 99% Calm Calm 2.3 mph3.7 kmh 29.40 in995.6 mb - 0.00 in0.0 mm 0.01 in0.3 mm
01:50 AM 49.3°F9.6°C 49.0°F9.4°C 99% Calm Calm -- 29.40 in995.6 mb - 0.00 in0.0 mm 0.01 in0.3 mm
01:45 AM 49.3°F9.6°C 49.0°F9.4°C 99% 1.2 mph W1.9 kmh W 2.3 mph3.7 kmh 29.40 in995.6 mb - 0.00 in0.0 mm 0.01 in0.3 mm
01:40 AM 49.3°F9.6°C 49.0°F9.4°C 99% 1.2 mph W1.9 kmh W 2.3 mph3.7 kmh 29.40 in995.6 mb - 0.00 in0.0 mm 0.01 in0.3 mm
01:35 AM 49.3°F9.6°C 49.0°F9.4°C 99% 1.2 mph W1.9 kmh W 2.3 mph3.7 kmh 29.39 in995.3 mb - 0.00 in0.0 mm 0.01 in0.3 mm
01:30 AM 49.5°F9.7°C 49.2°F9.6°C 99% 1.2 mph W1.9 kmh W 2.3 mph3.7 kmh 29.39 in995.3 mb - 0.00 in0.0 mm 0.01 in0.3 mm
01:25 AM 49.5°F9.7°C 49.2°F9.6°C 99% 1.2 mph W1.9 kmh W 2.3 mph3.7 kmh 29.39 in995.3 mb - 0.00 in0.0 mm 0.01 in0.3 mm
01:20 AM 49.6°F9.8°C 49.4°F9.7°C 99% 1.2 mph W1.9 kmh W 2.3 mph3.7 kmh 29.39 in995.3 mb - 0.00 in0.0 mm 0.01 in0.3 mm
01:15 AM 49.8°F9.9°C 49.5°F9.7°C 99% 1.2 mph W1.9 kmh W 3.5 mph5.6 kmh 29.39 in995.3 mb - 0.00 in0.0 mm 0.01 in0.3 mm
01:10 AM 49.8°F9.9°C 49.6°F9.8°C 99% 1.2 mph W1.9 kmh W 1.2 mph1.9 kmh 29.39 in995.3 mb - 0.01 in0.3 mm 0.01 in0.3 mm
01:00 AM 50.0°F10.0°C 49.7°F9.8°C 99% 2.3 mph W3.7 kmh W 2.3 mph3.7 kmh 29.39 in995.3 mb - 0.00 in0.0 mm 0.00 in0.0 mm
12:55 AM 49.8°F9.9°C 49.6°F9.8°C 99% 1.2 mph W1.9 kmh W 2.3 mph3.7 kmh 29.39 in995.3 mb - 0.00 in0.0 mm 0.00 in0.0 mm
12:50 AM 49.8°F9.9°C 49.6°F9.8°C 99% 1.2 mph W1.9 kmh W 3.5 mph5.6 kmh 29.38 in994.9 mb - 0.00 in0.0 mm 0.00 in0.0 mm
12:45 AM 49.8°F9.9°C 49.6°F9.8°C 99% Calm Calm 2.3 mph3.7 kmh 29.38 in994.9 mb - 0.00 in0.0 mm 0.00 in0.0 mm
12:40 AM 49.8°F9.9°C 49.6°F9.8°C 99% Calm Calm 2.3 mph3.7 kmh 29.38 in994.9 mb - 0.00 in0.0 mm 0.00 in0.0 mm
12:35 AM 49.8°F9.9°C 49.6°F9.8°C 99% Calm Calm 2.3 mph3.7 kmh 29.38 in994.9 mb - 0.00 in0.0 mm 0.00 in0.0 mm
12:30 AM 49.8°F9.9°C 49.6°F9.8°C 99% Calm Calm -- 29.38 in994.9 mb - 0.00 in0.0 mm 0.00 in0.0 mm
12:25 AM 49.7°F9.8°C 49.4°F9.7°C 99% Calm Calm -- 29.37 in994.6 mb - 0.00 in0.0 mm 0.00 in0.0 mm
12:20 AM 49.6°F9.8°C 49.4°F9.7°C 99% Calm Calm 2.3 mph3.7 kmh 29.37 in994.6 mb - 0.00 in0.0 mm 0.00 in0.0 mm
12:15 AM 49.6°F9.8°C 49.4°F9.7°C 99% Calm Calm 1.2 mph1.9 kmh 29.37 in994.6 mb - 0.00 in0.0 mm 0.00 in0.0 mm
12:10 AM 49.6°F9.8°C 49.4°F9.7°C 99% Calm Calm -- 29.37 in994.6 mb - 0.00 in0.0 mm 0.00 in0.0 mm
12:00 AM 49.5°F9.7°C 49.2°F9.6°C 99% Calm Calm 1.2 mph1.9 kmh 29.36 in994.2 mb - 0.00 in0.0 mm 0.00 in0.0 mm